Time;durP1;ratioP1;P1;durP2;ratioP2;P2;SDS_P1;SDS_P2;PMS_P1;PMS_P2;Temp;Humidity;BMP_temperature;BMP_pressure;BME280_temperature;BME280_humidity;BME280_pressure;Samples;Min_cycle;Max_cycle;Signal;HPM_P1;HPM_P2
2022/05/16 00:01:38;;;;;;;20.55;13.40;;;17.70;99.90;;;;;;5035219;28;20083;-60
2022/05/16 00:04:04;;;;;;;20.08;13.43;;;17.70;99.90;;;;;;5034625;28;20025;-60
2022/05/16 00:06:30;;;;;;;21.20;15.48;;;17.70;99.90;;;;;;5033019;28;20483;-60
2022/05/16 00:08:57;;;;;;;24.67;15.73;;;17.70;99.90;;;;;;5030905;28;20077;-60
2022/05/16 00:11:23;;;;;;;26.08;16.38;;;17.70;99.90;;;;;;5036746;28;20063;-60
2022/05/16 00:13:48;;;;;;;18.73;14.90;;;17.70;99.90;;;;;;5033492;28;20056;-60
2022/05/16 00:16:14;;;;;;;21.92;15.30;;;17.60;99.90;;;;;;5034566;28;20026;-59
2022/05/16 00:18:40;;;;;;;20.50;13.45;;;17.60;99.90;;;;;;5034387;28;20025;-59
2022/05/16 00:21:06;;;;;;;21.55;14.35;;;17.60;99.90;;;;;;5031045;28;20025;-60
2022/05/16 00:23:31;;;;;;;20.30;14.90;;;17.50;99.90;;;;;;5036694;28;20030;-60
2022/05/16 00:25:57;;;;;;;19.73;13.68;;;17.40;99.90;;;;;;5034389;28;20469;-59
2022/05/16 00:28:23;;;;;;;19.00;12.15;;;17.30;99.90;;;;;;5034218;28;20037;-60
2022/05/16 00:30:49;;;;;;;18.48;13.70;;;17.40;99.90;;;;;;5034874;28;20058;-59
2022/05/16 00:33:15;;;;;;;19.75;13.23;;;17.40;99.90;;;;;;5030675;28;20032;-60
2022/05/16 00:35:40;;;;;;;16.15;13.27;;;17.50;99.90;;;;;;5035978;28;20030;-59
2022/05/16 00:38:06;;;;;;;26.63;17.85;;;17.50;99.90;;;;;;5032637;28;20498;-59
2022/05/16 00:40:32;;;;;;;23.40;14.77;;;17.50;99.90;;;;;;5034230;28;20120;-60
2022/05/16 00:43:03;;;;;;;18.35;14.20;;;17.50;99.90;;;;;;5034366;28;20116;-60
2022/05/16 00:45:29;;;;;;;21.60;15.15;;;17.50;99.90;;;;;;5032778;28;20033;-60
2022/05/16 00:47:55;;;;;;;20.35;15.77;;;17.40;99.90;;;;;;5032102;28;20104;-60
2022/05/16 00:50:21;;;;;;;26.77;16.77;;;17.40;99.90;;;;;;5034075;28;20121;-59
2022/05/16 00:52:49;;;;;;;17.08;13.98;;;17.40;99.90;;;;;;5032279;28;20030;-60
2022/05/16 00:55:22;;;;;;;28.65;17.70;;;17.40;99.90;;;;;;5034516;28;20032;-59
2022/05/16 00:57:53;;;;;;;22.00;15.67;;;17.40;99.90;;;;;;5034369;28;20421;-60
2022/05/16 01:00:26;;;;;;;22.25;15.82;;;17.30;99.90;;;;;;5030847;28;20062;-59
2022/05/16 01:05:43;;;;;;;21.08;16.23;;;17.30;99.90;;;;;;5044201;28;20043;-60
2022/05/16 01:08:18;;;;;;;24.13;14.93;;;17.20;99.90;;;;;;5032932;28;20474;-60
2022/05/16 01:10:45;;;;;;;25.90;16.50;;;17.20;99.90;;;;;;5034211;28;20099;-59
2022/05/16 01:13:11;;;;;;;18.70;13.35;;;17.10;99.90;;;;;;5034082;28;20461;-60
2022/05/16 01:15:46;;;;;;;24.02;16.23;;;17.00;99.90;;;;;;5031756;28;20033;-60
2022/05/16 01:18:15;;;;;;;22.88;15.38;;;17.00;99.90;;;;;;5014429;28;20041;-59
2022/05/16 01:20:56;;;;;;;30.25;17.77;;;16.90;99.90;;;;;;5035480;28;20079;-59
2022/05/16 01:23:25;;;;;;;27.65;16.85;;;16.80;99.90;;;;;;5033508;28;20374;-59
2022/05/16 01:25:52;;;;;;;22.92;15.95;;;16.80;99.90;;;;;;5034238;28;20033;-60
2022/05/16 01:28:20;;;;;;;22.58;17.17;;;16.70;99.90;;;;;;5033875;28;20389;-60
2022/05/16 01:30:47;;;;;;;16.38;14.40;;;16.50;99.90;;;;;;5032811;28;20041;-59
2022/05/16 01:33:18;;;;;;;23.05;15.52;;;16.50;99.90;;;;;;5029540;28;20029;-60
2022/05/16 01:35:44;;;;;;;18.40;13.93;;;16.50;99.90;;;;;;5034527;28;20088;-60
2022/05/16 01:38:18;;;;;;;25.27;17.15;;;16.40;99.90;;;;;;5032617;28;20042;-59
2022/05/16 01:40:49;;;;;;;30.60;20.85;;;16.20;99.90;;;;;;5036648;28;20037;-59
2022/05/16 01:43:16;;;;;;;19.80;14.57;;;16.30;99.90;;;;;;5037430;28;20022;-60
2022/05/16 01:45:44;;;;;;;20.35;13.75;;;16.30;99.90;;;;;;5037448;28;20017;-60
2022/05/16 01:48:11;;;;;;;33.08;17.40;;;16.40;99.90;;;;;;5017286;28;20026;-60
2022/05/16 01:50:36;;;;;;;23.77;18.65;;;16.40;99.90;;;;;;5039476;28;20029;-59
2022/05/16 01:53:02;;;;;;;23.02;18.70;;;16.40;99.90;;;;;;5037483;28;20040;-59
2022/05/16 01:55:28;;;;;;;22.60;17.98;;;16.30;99.90;;;;;;5035816;28;20500;-59
2022/05/16 01:57:54;;;;;;;23.42;18.10;;;16.20;99.90;;;;;;5037716;28;20024;-59
2022/05/16 02:00:20;;;;;;;19.33;15.18;;;16.20;99.90;;;;;;5034143;28;20029;-60
2022/05/16 02:02:46;;;;;;;24.80;19.70;;;16.20;99.90;;;;;;5037287;28;20129;-59
2022/05/16 02:05:15;;;;;;;22.40;17.67;;;16.20;99.90;;;;;;5037600;28;20049;-60
2022/05/16 02:07:41;;;;;;;25.48;19.85;;;16.20;99.90;;;;;;5036997;28;20033;-59
2022/05/16 02:10:08;;;;;;;28.08;18.67;;;16.20;99.90;;;;;;5034602;28;20186;-59
2022/05/16 02:12:35;;;;;;;64.60;25.67;;;16.30;99.90;;;;;;5035736;28;20469;-60
2022/05/16 02:15:01;;;;;;;52.30;20.52;;;16.30;99.90;;;;;;5033982;28;20112;-60
2022/05/16 02:17:27;;;;;;;42.88;20.15;;;16.20;99.90;;;;;;5038612;28;20029;-58
2022/05/16 02:19:53;;;;;;;60.33;26.20;;;16.20;99.90;;;;;;5036840;28;20361;-61
2022/05/16 02:25:05;;;;;;;31.08;17.42;;;16.00;99.90;;;;;;5037272;28;20163;-59
2022/05/16 02:27:31;;;;;;;49.65;19.95;;;16.00;99.90;;;;;;5035337;28;20647;-58
2022/05/16 02:29:57;;;;;;;65.25;20.48;;;16.10;99.90;;;;;;5034029;28;20044;-60
2022/05/16 02:32:23;;;;;;;50.67;19.75;;;16.10;99.90;;;;;;5038692;28;20100;-59
2022/05/16 02:34:49;;;;;;;38.03;16.83;;;16.00;99.90;;;;;;5036283;28;20121;-59
2022/05/16 02:37:15;;;;;;;21.58;17.20;;;16.00;99.90;;;;;;5036617;28;20124;-59
2022/05/16 02:39:44;;;;;;;41.75;17.27;;;15.90;99.90;;;;;;5036211;28;20032;-60
2022/05/16 02:42:14;;;;;;;33.70;20.02;;;15.90;99.90;;;;;;5025954;28;20046;-59
2022/05/16 02:44:41;;;;;;;26.80;17.35;;;15.90;99.90;;;;;;5050087;28;20527;-60
2022/05/16 02:47:09;;;;;;;40.95;17.52;;;15.90;99.90;;;;;;5035621;28;20040;-59
2022/05/16 02:49:35;;;;;;;33.50;17.77;;;15.90;99.90;;;;;;5034515;28;20049;-60
2022/05/16 02:52:01;;;;;;;23.77;14.55;;;15.90;99.90;;;;;;5035701;28;20021;-60
2022/05/16 02:54:26;;;;;;;54.97;15.77;;;16.00;99.90;;;;;;5034142;28;20155;-59
2022/05/16 02:56:52;;;;;;;48.50;16.70;;;16.10;99.90;;;;;;5034699;28;20478;-59
2022/05/16 02:59:18;;;;;;;59.13;19.02;;;16.10;99.90;;;;;;5037685;28;20026;-59
2022/05/16 03:01:44;;;;;;;55.80;20.90;;;15.90;99.90;;;;;;5035900;28;20029;-59
2022/05/16 03:04:09;;;;;;;74.22;23.10;;;16.00;99.90;;;;;;5036048;28;20033;-59
2022/05/16 03:06:35;;;;;;;56.50;19.25;;;16.00;99.90;;;;;;5034908;28;20354;-58
2022/05/16 03:09:01;;;;;;;61.40;21.20;;;16.00;99.90;;;;;;5032651;28;20244;-59
2022/05/16 03:11:27;;;;;;;58.53;25.90;;;15.90;99.90;;;;;;5037813;28;20021;-60
2022/05/16 03:13:52;;;;;;;43.55;20.13;;;15.90;99.90;;;;;;5034366;28;20056;-60
2022/05/16 03:16:19;;;;;;;35.97;21.75;;;15.90;99.90;;;;;;5036219;28;20025;-59
2022/05/16 03:18:44;;;;;;;20.30;16.45;;;15.90;99.90;;;;;;5035495;28;20021;-59
2022/05/16 03:21:11;;;;;;;29.13;19.85;;;15.90;99.90;;;;;;5031530;28;20036;-60
2022/05/16 03:23:36;;;;;;;30.90;22.20;;;15.80;99.90;;;;;;5037716;28;20029;-60
2022/05/16 03:26:02;;;;;;;23.58;18.52;;;15.70;99.90;;;;;;5035453;28;20418;-60
2022/05/16 03:28:29;;;;;;;19.65;17.45;;;15.60;99.90;;;;;;5032861;28;20849;-59
2022/05/16 03:30:57;;;;;;;18.98;16.85;;;15.50;99.90;;;;;;5035771;28;20036;-60
2022/05/16 03:33:24;;;;;;;18.38;16.27;;;15.40;99.90;;;;;;5032294;28;20087;-59
2022/05/16 03:35:55;;;;;;;29.85;23.20;;;15.30;99.90;;;;;;5034849;28;20376;-59
2022/05/16 03:41:10;;;;;;;19.83;17.83;;;15.40;99.90;;;;;;5034827;28;20044;-60
2022/05/16 03:43:38;;;;;;;24.90;20.15;;;15.40;99.90;;;;;;5035219;28;20029;-59
2022/05/16 03:46:05;;;;;;;23.33;19.35;;;15.40;99.90;;;;;;5034183;28;20459;-59
2022/05/16 03:48:32;;;;;;;19.67;17.35;;;15.40;99.90;;;;;;5033337;28;20178;-60
2022/05/16 03:50:58;;;;;;;21.02;18.60;;;15.40;99.90;;;;;;5033181;28;20051;-60
2022/05/16 03:53:23;;;;;;;18.63;15.75;;;15.30;99.90;;;;;;5035635;28;20037;-59
2022/05/16 03:55:49;;;;;;;19.55;17.48;;;15.30;99.90;;;;;;5034780;28;20410;-59
2022/05/16 03:58:15;;;;;;;18.50;16.55;;;15.20;99.90;;;;;;5035126;28;20037;-59
2022/05/16 04:00:41;;;;;;;18.25;15.80;;;15.20;99.90;;;;;;5034753;28;20017;-59
2022/05/16 04:03:07;;;;;;;18.02;16.00;;;15.10;99.90;;;;;;5029985;28;20413;-59
2022/05/16 04:05:33;;;;;;;18.17;15.23;;;15.10;99.90;;;;;;5037176;28;20029;-59
2022/05/16 04:07:59;;;;;;;18.38;14.80;;;14.90;99.90;;;;;;5033288;28;20083;-60
2022/05/16 04:10:25;;;;;;;19.95;16.70;;;14.80;99.90;;;;;;5034645;28;20387;-60
2022/05/16 04:12:51;;;;;;;18.67;16.20;;;14.80;99.90;;;;;;5034809;28;20473;-60
2022/05/16 04:15:17;;;;;;;16.65;14.93;;;14.90;99.90;;;;;;5029651;28;20052;-59
2022/05/16 04:17:43;;;;;;;19.50;17.42;;;14.80;99.90;;;;;;5035161;28;20033;-59
2022/05/16 04:20:11;;;;;;;19.45;17.02;;;14.70;99.90;;;;;;5032638;28;20143;-59
2022/05/16 04:22:37;;;;;;;21.92;18.98;;;14.60;99.90;;;;;;5034727;28;20021;-60
2022/05/16 04:25:05;;;;;;;23.58;19.55;;;14.80;99.90;;;;;;5034878;28;20044;-60
2022/05/16 04:27:31;;;;;;;23.70;17.80;;;14.80;99.90;;;;;;5032790;28;20051;-60
2022/05/16 04:29:57;;;;;;;22.63;17.05;;;14.70;99.90;;;;;;5032140;28;20131;-59
2022/05/16 04:32:22;;;;;;;18.05;15.70;;;14.70;99.90;;;;;;5034349;28;20025;-60
2022/05/16 04:34:48;;;;;;;20.90;15.57;;;14.60;99.90;;;;;;5034766;28;20109;-59
2022/05/16 04:37:14;;;;;;;20.92;15.77;;;14.70;99.90;;;;;;5033087;28;20474;-59
2022/05/16 04:39:40;;;;;;;24.25;18.35;;;14.50;99.90;;;;;;5034059;28;20409;-60
2022/05/16 04:44:50;;;;;;;21.85;17.98;;;14.70;99.90;;;;;;5044476;28;20402;-60
2022/05/16 04:47:16;;;;;;;23.85;18.20;;;14.70;99.90;;;;;;5034304;28;20029;-60
2022/05/16 04:49:42;;;;;;;18.27;16.38;;;14.80;99.90;;;;;;5028938;28;20041;-59
2022/05/16 04:52:11;;;;;;;19.98;16.40;;;14.90;99.90;;;;;;5033869;28;20025;-60
2022/05/16 04:54:37;;;;;;;19.08;16.17;;;15.00;99.90;;;;;;5029142;28;20032;-59
2022/05/16 04:57:03;;;;;;;18.35;15.43;;;15.10;99.90;;;;;;5029862;28;20022;-58
2022/05/16 04:59:29;;;;;;;16.35;13.65;;;15.10;99.90;;;;;;5035596;28;20026;-59
2022/05/16 05:01:55;;;;;;;15.35;11.85;;;15.20;99.90;;;;;;5034098;28;20037;-59
2022/05/16 05:04:21;;;;;;;15.43;11.15;;;15.30;99.90;;;;;;5034233;28;20033;-59
2022/05/16 05:06:48;;;;;;;13.05;10.25;;;15.30;99.90;;;;;;5034186;28;20088;-59
2022/05/16 05:09:13;;;;;;;13.57;10.40;;;15.50;99.90;;;;;;5030083;28;20461;-59
2022/05/16 05:14:32;;;;;;;11.48;9.20;;;15.70;99.90;;;;;;5037069;28;20505;-59
2022/05/16 05:16:59;;;;;;;12.18;8.80;;;15.80;99.90;;;;;;5038253;28;20037;-59
2022/05/16 05:19:26;;;;;;;11.27;7.75;;;15.80;99.90;;;;;;5038222;28;20029;-59
2022/05/16 05:21:52;;;;;;;10.75;7.43;;;16.00;99.90;;;;;;5038045;28;20396;-58
2022/05/16 05:24:17;;;;;;;10.05;7.15;;;16.20;99.90;;;;;;5033117;28;20026;-58
2022/05/16 05:26:43;;;;;;;8.40;6.55;;;16.40;99.90;;;;;;5037644;28;20032;-59
2022/05/16 05:29:11;;;;;;;11.23;6.85;;;16.60;99.90;;;;;;5038218;28;20065;-59
2022/05/16 05:31:37;;;;;;;11.43;6.72;;;16.70;99.90;;;;;;5038211;28;20030;-59
2022/05/16 05:34:03;;;;;;;8.13;5.82;;;16.90;99.90;;;;;;5037702;28;20452;-59
2022/05/16 05:36:29;;;;;;;8.15;5.10;;;17.30;99.90;;;;;;5035915;28;20025;-59
2022/05/16 05:38:57;;;;;;;7.32;4.88;;;18.00;99.90;;;;;;5035534;28;20068;-60
2022/05/16 05:41:23;;;;;;;7.25;4.80;;;18.90;99.90;;;;;;5037698;28;20155;-59
2022/05/16 05:43:49;;;;;;;6.20;4.78;;;19.60;99.90;;;;;;5037298;28;20064;-59
2022/05/16 05:46:16;;;;;;;6.80;4.20;;;20.30;99.90;;;;;;5037595;28;20167;-60
2022/05/16 05:48:42;;;;;;;5.97;3.95;;;21.60;99.90;;;;;;5037631;28;20029;-59
2022/05/16 05:51:08;;;;;;;7.30;4.10;;;21.90;99.90;;;;;;5033260;28;20515;-59
2022/05/16 05:53:37;;;;;;;9.55;4.65;;;21.90;99.90;;;;;;5039527;28;20075;-59
2022/05/16 05:56:07;;;;;;;5.85;3.83;;;22.30;99.90;;;;;;5037217;28;20025;-59
2022/05/16 05:58:33;;;;;;;7.93;3.58;;;22.60;99.90;;;;;;5037053;28;20405;-59
2022/05/16 06:01:00;;;;;;;6.53;3.28;;;23.80;99.90;;;;;;5037461;28;20032;-60
2022/05/16 06:03:27;;;;;;;7.28;3.60;;;24.00;99.90;;;;;;5033900;28;20030;-60
2022/05/16 06:05:53;;;;;;;6.30;3.47;;;24.50;99.90;;;;;;5035341;28;20025;-60
2022/05/16 06:08:19;;;;;;;7.05;3.22;;;24.90;99.90;;;;;;5038627;28;20103;-60
2022/05/16 06:10:45;;;;;;;6.65;3.10;;;25.30;99.90;;;;;;5037311;28;20060;-60
2022/05/16 06:13:11;;;;;;;6.15;2.70;;;25.50;99.90;;;;;;5036918;28;20045;-61
2022/05/16 06:15:36;;;;;;;9.73;3.17;;;25.10;99.90;;;;;;5036293;28;20037;-60
2022/05/16 06:18:02;;;;;;;7.10;3.00;;;25.50;99.90;;;;;;5033689;28;20125;-60
2022/05/16 06:20:28;;;;;;;6.38;3.00;;;26.10;99.90;;;;;;5038755;28;20029;-60
2022/05/16 06:22:54;;;;;;;6.70;3.03;;;25.10;99.90;;;;;;5037333;28;20083;-59
2022/05/16 06:25:33;;;;;;;6.20;3.00;;;25.80;99.90;;;;;;5032613;28;20087;-60
2022/05/16 06:28:07;;;;;;;4.70;2.60;;;26.20;99.90;;;;;;5034213;28;20022;-59
2022/05/16 06:30:34;;;;;;;4.28;2.92;;;27.70;99.90;;;;;;5030683;28;20116;-59
2022/05/16 06:33:00;;;;;;;6.35;2.80;;;27.00;99.90;;;;;;5033373;28;20025;-60
2022/05/16 06:35:25;;;;;;;6.45;2.75;;;27.10;99.90;;;;;;5035616;28;20589;-60
2022/05/16 06:37:52;;;;;;;5.88;2.65;;;27.20;99.90;;;;;;5031894;28;20038;-60
2022/05/16 06:40:19;;;;;;;6.53;2.80;;;27.30;99.90;;;;;;5031979;28;20029;-60
2022/05/16 06:42:45;;;;;;;6.95;3.17;;;26.80;99.90;;;;;;5031951;28;20018;-60
2022/05/16 06:45:12;;;;;;;6.95;2.70;;;26.80;99.90;;;;;;5032944;28;20030;-60
2022/05/16 06:47:37;;;;;;;5.80;2.92;;;27.90;99.90;;;;;;5034652;28;20034;-59
2022/05/16 06:50:04;;;;;;;7.25;3.22;;;28.60;99.90;;;;;;5032924;28;20044;-59
2022/05/16 06:52:30;;;;;;;8.05;3.03;;;27.90;99.90;;;;;;5032939;28;20494;-60
2022/05/16 06:54:56;;;;;;;5.10;2.80;;;27.70;99.90;;;;;;5031235;28;20483;-58
2022/05/16 06:57:22;;;;;;;3.90;2.85;;;27.90;99.90;;;;;;5032241;28;20075;-60
2022/05/16 06:59:48;;;;;;;4.50;2.53;;;27.40;99.90;;;;;;5035767;28;20033;-60
2022/05/16 07:02:14;;;;;;;6.75;2.80;;;27.60;99.90;;;;;;5036369;28;20014;-60
2022/05/16 07:04:40;;;;;;;7.25;2.78;;;27.20;99.90;;;;;;5035509;28;20620;-61
2022/05/16 07:07:08;;;;;;;6.18;2.90;;;28.90;99.90;;;;;;5034092;28;20048;-60
2022/05/16 07:09:36;;;;;;;6.18;2.60;;;28.80;99.90;;;;;;5034658;28;20043;-60
2022/05/16 07:12:02;;;;;;;5.28;2.95;;;30.20;99.90;;;;;;5032667;28;20046;-60
2022/05/16 07:14:28;;;;;;;6.80;2.85;;;29.70;99.90;;;;;;5037629;28;20036;-61
2022/05/16 07:16:53;;;;;;;7.60;2.70;;;29.30;99.90;;;;;;5036053;28;20029;-60
2022/05/16 07:19:19;;;;;;;4.85;2.70;;;27.90;99.90;;;;;;5035885;28;20138;-61
2022/05/16 07:21:45;;;;;;;7.00;2.90;;;28.40;99.90;;;;;;5033348;28;20036;-60
2022/05/16 07:24:11;;;;;;;5.93;2.58;;;29.00;99.90;;;;;;5031018;28;20049;-60
2022/05/16 07:29:21;;;;;;;6.20;2.78;;;29.60;99.90;;;;;;5037550;28;20049;-60
2022/05/16 07:31:46;;;;;;;4.78;2.72;;;28.10;99.90;;;;;;5035685;28;20034;-60
2022/05/16 07:34:13;;;;;;;6.00;2.90;;;27.90;99.90;;;;;;5035554;28;20099;-61
2022/05/16 07:36:39;;;;;;;8.30;3.50;;;27.30;99.90;;;;;;5035168;28;20025;-59
2022/05/16 07:39:04;;;;;;;8.88;2.90;;;28.60;99.90;;;;;;5031456;28;20049;-60
2022/05/16 07:41:31;;;;;;;6.88;2.88;;;28.00;99.90;;;;;;5037360;28;20032;-60
2022/05/16 07:43:58;;;;;;;4.97;2.80;;;29.90;99.90;;;;;;5035245;28;20516;-60
2022/05/16 07:46:24;;;;;;;6.35;3.00;;;28.80;99.90;;;;;;5033875;28;20044;-60
2022/05/16 07:48:49;;;;;;;8.70;2.95;;;27.50;99.90;;;;;;5035213;28;20036;-60
2022/05/16 07:51:15;;;;;;;6.70;3.15;;;29.90;99.90;;;;;;5031205;28;20021;-60
2022/05/16 07:53:41;;;;;;;7.35;3.10;;;30.70;99.70;;;;;;5035876;28;20025;-58
2022/05/16 07:56:07;;;;;;;7.63;3.40;;;31.30;98.90;;;;;;5033816;28;20120;-58
2022/05/16 07:58:34;;;;;;;7.57;3.40;;;29.90;99.90;;;;;;5035039;28;20038;-58
2022/05/16 08:01:00;;;;;;;9.18;3.13;;;30.90;99.40;;;;;;5033855;28;20029;-60
2022/05/16 08:03:28;;;;;;;6.68;3.40;;;32.10;98.40;;;;;;5032526;28;20029;-59
2022/05/16 08:05:54;;;;;;;6.60;3.15;;;31.80;97.80;;;;;;5033015;28;20087;-59
2022/05/16 08:11:04;;;;;;;8.68;3.50;;;30.60;98.80;;;;;;5035508;28;20148;-58
2022/05/16 08:13:30;;;;;;;7.20;3.10;;;30.40;99.10;;;;;;5030076;28;20017;-59
2022/05/16 08:15:57;;;;;;;7.07;3.50;;;30.40;99.30;;;;;;5034141;28;20392;-60
2022/05/16 08:18:23;;;;;;;8.52;4.03;;;31.20;97.60;;;;;;5032295;28;20036;-60
2022/05/16 08:20:50;;;;;;;8.93;3.40;;;30.30;99.10;;;;;;5033239;28;20029;-60
2022/05/16 08:23:21;;;;;;;6.93;3.30;;;31.10;98.80;;;;;;5031542;28;20040;-58
2022/05/16 08:25:48;;;;;;;8.00;3.47;;;30.90;98.30;;;;;;5030691;28;20063;-59
2022/05/16 08:28:15;;;;;;;9.38;3.63;;;30.50;98.50;;;;;;5030593;28;20044;-60
2022/05/16 08:30:41;;;;;;;8.07;3.75;;;30.90;98.00;;;;;;5034018;28;20509;-60
2022/05/16 08:33:07;;;;;;;8.38;3.35;;;31.00;98.50;;;;;;5030625;28;20026;-59
2022/05/16 08:35:33;;;;;;;7.78;3.15;;;30.00;99.90;;;;;;5036703;28;20074;-59
2022/05/16 08:41:06;;;;;;;6.13;3.50;;;31.30;97.10;;;;;;5037811;28;20390;-58
2022/05/16 08:43:53;;;;;;;7.35;3.25;;;32.10;97.40;;;;;;5034037;28;20521;-59
2022/05/16 08:46:28;;;;;;;8.80;3.53;;;30.70;98.10;;;;;;5034372;28;20124;-59
2022/05/16 08:48:58;;;;;;;8.40;3.50;;;30.60;98.90;;;;;;5033768;28;20044;-60
2022/05/16 08:51:28;;;;;;;6.53;3.50;;;29.50;99.90;;;;;;5031546;28;20091;-60
2022/05/16 08:54:23;;;;;;;8.07;3.63;;;31.30;97.80;;;;;;5032172;28;20058;-62
2022/05/16 08:56:51;;;;;;;6.72;3.65;;;31.30;96.80;;;;;;5044262;28;20033;-60
2022/05/16 08:59:24;;;;;;;8.50;4.32;;;30.30;97.80;;;;;;5035395;28;20044;-60
2022/05/16 09:01:56;;;;;;;5.30;3.40;;;30.70;97.60;;;;;;5034615;28;20447;-60
2022/05/16 09:04:39;;;;;;;6.22;3.10;;;29.60;99.40;;;;;;5032730;28;20040;-59
2022/05/16 09:07:28;;;;;;;7.22;3.08;;;30.10;98.70;;;;;;5033827;28;20083;-59
2022/05/16 09:10:05;;;;;;;7.70;3.38;;;29.80;98.60;;;;;;5034082;28;20037;-60
2022/05/16 09:12:46;;;;;;;6.47;2.97;;;30.90;99.20;;;;;;5032453;28;20020;-60
2022/05/16 09:15:47;;;;;;;8.00;3.22;;;29.50;99.60;;;;;;5014352;28;20080;-59
2022/05/16 09:18:24;;;;;;;8.25;3.40;;;30.00;97.70;;;;;;5012959;28;20464;-59
2022/05/16 09:21:27;;;;;;;7.15;2.90;;;31.70;95.90;;;;;;5033293;28;20033;-60
2022/05/16 09:24:07;;;;;;;8.88;3.35;;;30.10;98.40;;;;;;5044093;28;20128;-60
2022/05/16 09:26:48;;;;;;;6.07;3.25;;;30.00;98.60;;;;;;5034473;28;20063;-60
2022/05/16 09:29:17;;;;;;;8.80;3.50;;;30.10;98.50;;;;;;5034747;28;20441;-60
2022/05/16 09:31:45;;;;;;;4.40;2.72;;;31.00;98.00;;;;;;5034026;28;20510;-60
2022/05/16 09:34:12;;;;;;;4.38;2.90;;;31.60;96.60;;;;;;5033792;28;20026;-59
2022/05/16 09:36:41;;;;;;;6.78;3.30;;;31.10;96.20;;;;;;5032877;28;20370;-59
2022/05/16 09:39:08;;;;;;;7.05;3.00;;;30.10;96.70;;;;;;5029950;28;20064;-60
2022/05/16 09:41:43;;;;;;;8.15;3.60;;;31.40;95.10;;;;;;5036203;28;20030;-60
2022/05/16 09:44:15;;;;;;;7.18;3.28;;;30.10;96.60;;;;;;5034291;28;20409;-60
2022/05/16 09:46:44;;;;;;;8.77;3.33;;;29.80;97.80;;;;;;5033649;28;20029;-60
2022/05/16 09:49:21;;;;;;;5.93;3.10;;;29.30;97.20;;;;;;5033469;28;20030;-60
2022/05/16 09:51:48;;;;;;;8.10;3.60;;;29.80;97.10;;;;;;5033727;28;20094;-59
2022/05/16 09:54:36;;;;;;;5.47;3.47;;;30.30;96.80;;;;;;5029644;28;20032;-59
2022/05/16 09:57:21;;;;;;;6.85;3.47;;;30.40;95.70;;;;;;5030807;28;24534;-60
2022/05/16 10:00:16;;;;;;;7.63;3.60;;;30.40;95.90;;;;;;5043616;28;20033;-60
2022/05/16 10:02:42;;;;;;;4.95;3.10;;;31.50;95.70;;;;;;5047124;28;20017;-61
2022/05/16 10:05:27;;;;;;;6.00;3.55;;;31.20;95.20;;;;;;5035803;28;20040;-60
2022/05/16 10:08:14;;;;;;;5.60;3.40;;;31.90;94.60;;;;;;5037334;28;20033;-60
2022/05/16 10:10:47;;;;;;;8.68;3.60;;;31.50;95.70;;;;;;5034454;28;20045;-60
2022/05/16 10:13:15;;;;;;;6.57;3.80;;;31.70;95.30;;;;;;5036374;28;20105;-60
2022/05/16 10:15:41;;;;;;;7.72;3.58;;;32.10;95.00;;;;;;5036375;28;20029;-60
2022/05/16 10:18:12;;;;;;;7.50;4.03;;;32.40;95.60;;;;;;5032936;28;20028;-60
2022/05/16 10:20:46;;;;;;;9.32;3.90;;;32.80;94.90;;;;;;5049016;28;20040;-60
2022/05/16 10:23:24;;;;;;;8.25;3.95;;;32.10;96.30;;;;;;5036135;28;20059;-61
2022/05/16 10:25:55;;;;;;;5.53;3.95;;;31.60;96.30;;;;;;5037167;28;20393;-61
2022/05/16 10:28:27;;;;;;;8.23;3.65;;;31.10;96.70;;;;;;5036358;28;20494;-62
2022/05/16 10:33:40;;;;;;;5.32;3.78;;;32.70;94.70;;;;;;5035417;28;20520;-63
2022/05/16 10:36:13;;;;;;;7.82;3.95;;;32.80;92.60;;;;;;5032685;28;20073;-63
2022/05/16 10:38:53;;;;;;;5.15;3.83;;;31.20;94.60;;;;;;5045223;28;20037;-63
2022/05/16 10:41:50;;;;;;;5.53;3.95;;;31.00;93.30;;;;;;5037908;28;20683;-63
2022/05/16 10:44:18;;;;;;;7.72;4.18;;;32.10;95.00;;;;;;5036652;28;20033;-63
2022/05/16 10:46:52;;;;;;;8.35;4.53;;;32.50;93.90;;;;;;5036320;28;20478;-63
2022/05/16 10:49:21;;;;;;;9.05;4.40;;;32.70;94.70;;;;;;5035845;28;20494;-63
2022/05/16 10:52:10;;;;;;;8.85;4.60;;;32.20;94.20;;;;;;5036502;28;20070;-62
2022/05/16 10:54:36;;;;;;;8.13;4.25;;;32.10;95.10;;;;;;5030677;28;20513;-61
2022/05/16 10:57:37;;;;;;;8.25;4.13;;;32.40;94.70;;;;;;5032141;28;20045;-62
2022/05/16 11:00:10;;;;;;;8.30;4.47;;;31.30;92.60;;;;;;4990024;28;20085;-61
2022/05/16 11:03:13;;;;;;;6.65;4.30;;;31.00;93.20;;;;;;4991217;28;20105;-61
2022/05/16 11:05:42;;;;;;;7.47;3.92;;;31.30;92.50;;;;;;4991867;28;20045;-63
2022/05/16 11:08:37;;;;;;;5.78;3.67;;;32.10;92.60;;;;;;4991123;28;20109;-62
2022/05/16 11:11:10;;;;;;;8.23;3.90;;;31.90;92.30;;;;;;4989948;28;20038;-61
2022/05/16 11:13:41;;;;;;;6.65;3.70;;;31.80;92.30;;;;;;4988097;28;20030;-63
2022/05/16 11:16:32;;;;;;;7.85;4.00;;;31.90;91.90;;;;;;4990417;28;20040;-62
2022/05/16 11:19:27;;;;;;;6.93;3.80;;;32.40;91.90;;;;;;4990717;28;20054;-62
2022/05/16 11:22:02;;;;;;;8.13;4.07;;;32.50;91.40;;;;;;4907910;29;20032;-62
2022/05/16 11:24:52;;;;;;;8.32;4.57;;;32.40;91.30;;;;;;4907977;29;20032;-63
2022/05/16 11:27:25;;;;;;;8.38;4.32;;;30.80;90.20;;;;;;4906566;29;20036;-63
2022/05/16 11:29:56;;;;;;;;;;;31.30;91.20;;;;;;4914720;29;20044;-63
2022/05/16 11:32:35;;;;;;;8.48;4.00;;;32.20;92.00;;;;;;4913205;29;19914;-61
2022/05/16 11:35:09;;;;;;;7.07;4.20;;;32.60;91.10;;;;;;4946961;29;20049;-62
2022/05/16 11:37:46;;;;;;;8.48;4.40;;;32.60;92.20;;;;;;4948676;28;20626;-62
2022/05/16 11:40:27;;;;;;;7.78;4.53;;;32.40;91.90;;;;;;4951460;28;20036;-63
2022/05/16 11:43:34;;;;;;;8.70;4.63;;;32.10;91.90;;;;;;4949778;29;20035;-63
2022/05/16 11:46:25;;;;;;;7.30;4.38;;;31.90;90.90;;;;;;4951707;28;20086;-62
2022/05/16 11:48:59;;;;;;;9.05;4.32;;;32.40;90.20;;;;;;4954110;28;20531;-62
2022/05/16 11:52:04;;;;;;;8.38;4.50;;;31.80;91.60;;;;;;4951304;28;20584;-63
2022/05/16 11:54:34;;;;;;;8.27;4.25;;;32.00;91.80;;;;;;4938140;28;20036;-62
2022/05/16 12:03:06;;;;;;;8.13;4.07;;;32.30;91.20;;;;;;5022298;28;20068;-61
2022/05/16 12:05:45;;;;;;;7.15;3.40;;;32.30;91.50;;;;;;5029425;28;20442;-63
2022/05/16 12:08:23;;;;;;;7.28;3.38;;;31.80;90.70;;;;;;5030029;28;20095;-63
2022/05/16 12:10:57;;;;;;;5.22;2.70;;;31.90;90.00;;;;;;5020776;28;20519;-62
2022/05/16 12:13:28;;;;;;;7.00;3.03;;;32.20;90.00;;;;;;5018509;28;20029;-62
2022/05/16 12:16:12;;;;;;;5.60;2.35;;;31.90;90.40;;;;;;5017059;28;20447;-64
2022/05/16 12:18:44;;;;;;;5.00;2.65;;;31.90;89.10;;;;;;4997495;28;20026;-63
2022/05/16 12:21:17;;;;;;;4.95;2.28;;;31.90;89.60;;;;;;5029536;28;20048;-63
2022/05/16 12:23:49;;;;;;;4.18;2.20;;;31.50;90.10;;;;;;5024312;28;20517;-64
2022/05/16 12:26:26;;;;;;;4.90;2.30;;;31.60;91.40;;;;;;5025845;28;20037;-62
2022/05/16 12:29:08;;;;;;;3.95;2.47;;;31.70;89.80;;;;;;5019798;28;20734;-63
2022/05/16 12:31:49;;;;;;;5.22;2.05;;;31.20;90.10;;;;;;5026108;28;20042;-62
2022/05/16 12:34:40;;;;;;;2.75;2.08;;;31.20;90.20;;;;;;5024734;28;20029;-62
2022/05/16 12:37:13;;;;;;;5.50;2.08;;;31.20;90.30;;;;;;5024595;28;20044;-61
2022/05/16 12:40:05;;;;;;;4.47;2.03;;;31.50;90.50;;;;;;5029678;28;20026;-62
2022/05/16 12:42:52;;;;;;;4.97;2.00;;;31.70;87.80;;;;;;4986351;28;20116;-63
2022/05/16 12:45:32;;;;;;;4.75;2.00;;;31.90;87.00;;;;;;4987893;28;20034;-63
2022/05/16 12:48:35;;;;;;;5.57;2.35;;;32.10;86.50;;;;;;4997292;28;20034;-63
2022/05/16 12:51:29;;;;;;;4.93;1.93;;;31.70;87.60;;;;;;4988067;28;20113;-63
2022/05/16 12:54:09;;;;;;;4.13;2.03;;;31.30;86.20;;;;;;4988665;28;20041;-62
2022/05/16 12:56:49;;;;;;;5.07;2.10;;;31.60;90.70;;;;;;4989527;28;20036;-62
2022/05/16 12:59:46;;;;;;;5.30;2.00;;;31.80;89.80;;;;;;4987640;28;20092;-63
2022/05/16 13:02:52;;;;;;;6.00;2.22;;;32.00;89.70;;;;;;4989174;28;20041;-62
2022/05/16 13:05:32;;;;;;;6.03;1.90;;;31.50;88.00;;;;;;4883814;29;20048;-63
2022/05/16 13:08:10;;;;;;;4.95;1.90;;;31.20;89.40;;;;;;4883300;29;20032;-61
2022/05/16 13:10:59;;;;;;;4.68;1.80;;;31.20;86.70;;;;;;4882850;29;20056;-62
2022/05/16 13:13:40;;;;;;;4.93;2.20;;;31.10;87.10;;;;;;4882696;29;20037;-63
2022/05/16 13:16:17;;;;;;;5.10;2.00;;;31.00;87.20;;;;;;4883325;29;20052;-61
2022/05/16 13:18:51;;;;;;;3.65;2.00;;;30.90;88.00;;;;;;4893679;29;20492;-62
2022/05/16 13:21:20;;;;;;;4.72;2.28;;;30.90;88.20;;;;;;4938243;29;20028;-63
2022/05/16 13:23:46;;;;;;;6.25;2.05;;;30.60;87.20;;;;;;4937415;29;20532;-61
2022/05/16 13:31:48;;;;;;;5.45;1.95;;;30.50;84.60;;;;;;4937220;29;20046;-62
2022/05/16 13:34:42;;;;;;;4.67;2.20;;;30.60;85.40;;;;;;4933235;28;20029;-61